Time;durP1;ratioP1;P1;durP2;ratioP2;P2;SDS_P1;SDS_P2;PMS_P1;PMS_P2;Temp;Humidity;BMP_temperature;BMP_pressure;BME280_temperature;BME280_humidity;BME280_pressure;Samples;Min_cycle;Max_cycle;Signal;HPM_P1;HPM_P2
2023/01/11 03:02:35;;;;;;;9.67;9.00;;;6.70;99.90;;;;;;5124530;23;20661;-78
2023/01/11 03:05:02;;;;;;;9.20;8.70;;;6.70;99.90;;;;;;4995453;28;20198;-77
2023/01/11 03:07:42;;;;;;;9.70;8.90;;;6.60;99.90;;;;;;4993731;28;20199;-78
2023/01/11 03:10:20;;;;;;;9.77;9.17;;;6.50;99.90;;;;;;4991429;28;20262;-78
2023/01/11 03:12:57;;;;;;;9.80;9.30;;;6.50;99.90;;;;;;4993652;28;20236;-79
2023/01/11 03:15:43;;;;;;;10.00;9.30;;;6.50;99.90;;;;;;4996335;28;20278;-79
2023/01/11 03:18:23;;;;;;;10.27;9.60;;;6.60;99.90;;;;;;4995160;28;20207;-78
2023/01/11 03:20:58;;;;;;;10.03;9.43;;;6.60;99.90;;;;;;4993377;28;20605;-79
2023/01/11 03:23:34;;;;;;;10.77;10.07;;;6.70;99.90;;;;;;4993251;28;20202;-78
2023/01/11 03:26:08;;;;;;;9.50;9.00;;;6.70;99.90;;;;;;4997004;28;20699;-79
2023/01/11 03:28:39;;;;;;;9.30;8.60;;;6.80;99.90;;;;;;4986824;28;20204;-78
2023/01/11 03:31:12;;;;;;;8.90;8.40;;;6.80;99.90;;;;;;4993446;28;20231;-78
2023/01/11 03:33:46;;;;;;;9.40;8.90;;;6.90;99.90;;;;;;4994848;28;20195;-79
2023/01/11 03:36:19;;;;;;;9.27;8.63;;;6.90;99.90;;;;;;4994656;28;20197;-78
2023/01/11 03:38:51;;;;;;;9.20;8.60;;;7.00;99.90;;;;;;4995083;28;20197;-78
2023/01/11 03:41:22;;;;;;;9.20;8.70;;;7.00;99.90;;;;;;4992546;28;20225;-80
2023/01/11 03:43:51;;;;;;;9.47;8.77;;;7.10;99.90;;;;;;4993317;28;20212;-78
2023/01/11 03:46:21;;;;;;;9.30;8.80;;;7.10;99.90;;;;;;4994089;28;20282;-78
2023/01/11 03:48:55;;;;;;;9.70;9.20;;;7.10;99.90;;;;;;4995042;28;20204;-78
2023/01/11 03:51:26;;;;;;;9.93;9.33;;;7.20;99.90;;;;;;4992731;28;20228;-78
2023/01/11 03:53:57;;;;;;;9.90;9.10;;;7.20;99.90;;;;;;4989915;28;20225;-78
2023/01/11 03:56:30;;;;;;;9.60;9.00;;;7.20;99.90;;;;;;4994470;28;20204;-82
2023/01/11 03:58:57;;;;;;;9.07;8.57;;;7.30;99.90;;;;;;4992466;28;20232;-79
2023/01/11 04:01:24;;;;;;;9.57;8.97;;;7.30;99.90;;;;;;4989342;28;20235;-79
2023/01/11 04:03:53;;;;;;;9.30;8.70;;;7.30;99.90;;;;;;4990379;28;20208;-80
2023/01/11 04:06:20;;;;;;;9.03;8.43;;;7.30;99.90;;;;;;4991298;28;20241;-81
2023/01/11 04:08:46;;;;;;;9.10;8.60;;;7.40;99.90;;;;;;4987066;28;20211;-80
2023/01/11 04:11:13;;;;;;;9.20;8.70;;;7.40;99.90;;;;;;4990727;28;20280;-80
2023/01/11 04:13:40;;;;;;;9.20;8.70;;;7.40;99.90;;;;;;4988635;28;20271;-80
2023/01/11 04:16:07;;;;;;;9.07;8.57;;;7.40;99.90;;;;;;4988579;28;20206;-83
2023/01/11 04:18:34;;;;;;;8.97;8.47;;;7.40;99.90;;;;;;4993548;28;20201;-80
2023/01/11 04:21:02;;;;;;;9.10;8.60;;;7.40;99.90;;;;;;4992048;28;20224;-78
2023/01/11 04:23:29;;;;;;;9.00;8.50;;;7.40;99.90;;;;;;4991880;28;20624;-80
2023/01/11 04:25:56;;;;;;;9.30;8.70;;;7.50;99.90;;;;;;4992338;28;20220;-77
2023/01/11 04:28:23;;;;;;;9.40;8.80;;;7.50;99.90;;;;;;4993027;28;20193;-79
2023/01/11 04:30:50;;;;;;;9.20;8.70;;;7.50;99.90;;;;;;4993124;28;20216;-79
2023/01/11 04:33:18;;;;;;;9.20;8.70;;;7.50;99.90;;;;;;4993656;28;20201;-77
2023/01/11 04:35:45;;;;;;;9.10;8.60;;;7.50;99.90;;;;;;4994439;28;20193;-78
2023/01/11 04:38:13;;;;;;;9.60;9.10;;;7.60;99.90;;;;;;4993816;28;20243;-76
2023/01/11 04:40:40;;;;;;;9.50;9.00;;;7.60;99.90;;;;;;4993483;28;20222;-77
2023/01/11 04:43:06;;;;;;;10.60;9.80;;;7.60;99.90;;;;;;4994964;28;20244;-76
2023/01/11 04:45:33;;;;;;;10.50;9.90;;;7.60;99.90;;;;;;4994383;28;20196;-77
2023/01/11 04:47:59;;;;;;;10.60;9.90;;;7.60;99.90;;;;;;4993334;28;20260;-77
2023/01/11 04:50:27;;;;;;;11.13;10.33;;;7.70;99.90;;;;;;4992631;28;20213;-77
2023/01/11 04:52:54;;;;;;;10.50;9.80;;;7.60;99.90;;;;;;4993137;28;20207;-78
2023/01/11 04:55:22;;;;;;;10.10;9.50;;;7.60;99.90;;;;;;4991859;28;20236;-77
2023/01/11 04:57:49;;;;;;;9.70;9.20;;;7.60;99.90;;;;;;4991727;28;20205;-77
2023/01/11 05:00:16;;;;;;;10.57;9.90;;;7.60;99.90;;;;;;4991268;28;20217;-77
2023/01/11 05:02:43;;;;;;;10.13;9.53;;;7.60;99.90;;;;;;4991610;28;20279;-77
2023/01/11 05:05:11;;;;;;;10.40;9.70;;;7.60;99.90;;;;;;4991701;28;20226;-77
2023/01/11 05:07:38;;;;;;;9.60;9.10;;;7.60;99.90;;;;;;4993125;28;20286;-77
2023/01/11 05:10:06;;;;;;;9.37;8.87;;;7.60;99.90;;;;;;4992284;28;20256;-77
2023/01/11 05:12:34;;;;;;;9.60;9.00;;;7.60;99.90;;;;;;4993136;28;20743;-76
2023/01/11 05:15:01;;;;;;;9.60;9.00;;;7.70;99.90;;;;;;4996283;28;20578;-77
2023/01/11 05:17:28;;;;;;;9.90;9.30;;;7.70;99.90;;;;;;4984985;28;20205;-77
2023/01/11 05:19:55;;;;;;;9.23;8.73;;;7.70;99.90;;;;;;4994925;28;20206;-77
2023/01/11 05:22:21;;;;;;;9.90;9.30;;;7.70;99.90;;;;;;4997502;28;20637;-78
2023/01/11 05:24:48;;;;;;;10.17;9.47;;;7.70;99.90;;;;;;4995847;28;20193;-76
2023/01/11 05:27:15;;;;;;;9.77;9.10;;;7.80;99.90;;;;;;4995715;28;20236;-77
2023/01/11 05:29:43;;;;;;;10.00;9.30;;;7.70;99.90;;;;;;4995127;28;20700;-77
2023/01/11 05:32:11;;;;;;;10.00;9.40;;;7.70;99.90;;;;;;4995288;28;20257;-77
2023/01/11 05:34:37;;;;;;;10.23;9.60;;;7.70;99.90;;;;;;4995801;28;20695;-77
2023/01/11 05:37:04;;;;;;;10.20;9.60;;;7.70;99.90;;;;;;4996046;28;20248;-79
2023/01/11 05:39:31;;;;;;;10.63;9.97;;;7.70;99.90;;;;;;4995220;28;20614;-77
2023/01/11 05:41:58;;;;;;;11.10;10.27;;;7.60;99.90;;;;;;4996670;28;20279;-77
2023/01/11 05:47:13;;;;;;;10.70;10.10;;;7.60;99.90;;;;;;4994250;28;20271;-78
2023/01/11 05:49:40;;;;;;;11.33;10.53;;;7.40;99.90;;;;;;4994705;28;20271;-77
2023/01/11 05:52:06;;;;;;;10.63;10.00;;;7.40;99.90;;;;;;4995919;28;20220;-77
2023/01/11 05:54:33;;;;;;;10.47;9.67;;;7.30;99.90;;;;;;4996225;28;20633;-78
2023/01/11 05:57:00;;;;;;;10.67;10.07;;;7.30;99.90;;;;;;4994962;28;20204;-77
2023/01/11 05:59:27;;;;;;;10.90;10.20;;;7.20;99.90;;;;;;4994076;28;20224;-78
2023/01/11 06:01:53;;;;;;;10.60;10.00;;;7.20;99.90;;;;;;4996079;28;20224;-77
2023/01/11 06:04:21;;;;;;;10.90;10.20;;;7.10;99.90;;;;;;4997721;28;20196;-78
2023/01/11 06:06:48;;;;;;;10.53;9.87;;;7.20;99.90;;;;;;4988971;28;20298;-78
2023/01/11 06:09:15;;;;;;;10.47;9.87;;;7.20;99.90;;;;;;4994745;28;20214;-78
2023/01/11 06:11:42;;;;;;;10.57;9.97;;;7.30;99.90;;;;;;4994774;28;20250;-78
2023/01/11 06:14:09;;;;;;;10.70;10.00;;;7.30;99.90;;;;;;4995196;28;20204;-78
2023/01/11 06:16:35;;;;;;;10.40;9.80;;;7.40;99.90;;;;;;4994423;28;20192;-78
2023/01/11 06:19:02;;;;;;;10.57;9.97;;;7.40;99.90;;;;;;4994917;28;20200;-77
2023/01/11 06:21:30;;;;;;;10.93;10.23;;;7.50;99.90;;;;;;4993768;28;20628;-77
2023/01/11 06:23:57;;;;;;;11.30;10.50;;;7.50;99.90;;;;;;4994759;28;20295;-78
2023/01/11 06:26:24;;;;;;;11.23;10.53;;;7.50;99.90;;;;;;4995362;28;20227;-78
2023/01/11 06:28:52;;;;;;;11.90;11.10;;;7.60;99.90;;;;;;4995170;28;20197;-77
2023/01/11 06:31:19;;;;;;;11.47;10.67;;;7.60;99.90;;;;;;4993876;28;20231;-78
2023/01/11 06:33:46;;;;;;;11.60;10.83;;;7.60;99.90;;;;;;4993677;28;20279;-78
2023/01/11 06:36:14;;;;;;;11.33;10.53;;;7.60;99.90;;;;;;4993867;28;20216;-78
2023/01/11 06:38:43;;;;;;;11.40;10.60;;;7.60;99.90;;;;;;4994939;28;20197;-77
2023/01/11 06:41:11;;;;;;;11.43;10.73;;;7.60;99.90;;;;;;4993266;28;20220;-78
2023/01/11 06:43:40;;;;;;;11.07;10.37;;;7.60;99.90;;;;;;5001661;28;20256;-77
2023/01/11 06:46:11;;;;;;;10.90;10.20;;;7.50;99.90;;;;;;4995163;28;20286;-78
2023/01/11 06:48:38;;;;;;;11.30;10.60;;;7.40;99.90;;;;;;4995277;28;20207;-78
2023/01/11 06:51:05;;;;;;;11.37;10.67;;;7.40;99.90;;;;;;4986720;28;20724;-77
2023/01/11 06:53:31;;;;;;;10.43;9.83;;;7.40;99.90;;;;;;4994104;28;20228;-78
2023/01/11 06:55:59;;;;;;;10.90;10.20;;;7.30;99.90;;;;;;4994421;28;20201;-78
2023/01/11 06:58:26;;;;;;;10.60;10.00;;;7.30;99.90;;;;;;5002740;28;20207;-78
2023/01/11 07:00:55;;;;;;;10.93;10.10;;;7.20;99.90;;;;;;4993993;28;20901;-77
2023/01/11 07:03:23;;;;;;;11.20;10.50;;;7.20;99.90;;;;;;4979601;28;20213;-78
2023/01/11 07:05:51;;;;;;;10.40;9.80;;;7.20;99.90;;;;;;4990338;28;20200;-78
2023/01/11 07:08:18;;;;;;;10.23;9.63;;;7.20;99.90;;;;;;4993503;28;20227;-78
2023/01/11 07:10:45;;;;;;;10.80;10.10;;;7.20;99.90;;;;;;4993004;28;20798;-79
2023/01/11 07:13:15;;;;;;;10.83;10.13;;;7.20;99.90;;;;;;4994609;28;20209;-78
2023/01/11 07:15:42;;;;;;;11.00;10.30;;;7.20;99.90;;;;;;4994854;28;20695;-79
2023/01/11 07:18:08;;;;;;;11.13;10.43;;;7.20;99.90;;;;;;4997006;28;20199;-79
2023/01/11 07:20:35;;;;;;;10.50;9.90;;;7.20;99.90;;;;;;4994832;28;20277;-79
2023/01/11 07:23:02;;;;;;;10.90;10.20;;;7.20;99.90;;;;;;4994413;28;20197;-77
2023/01/11 07:25:30;;;;;;;11.33;10.63;;;7.30;99.90;;;;;;5008796;28;20212;-78
2023/01/11 07:27:58;;;;;;;11.00;10.30;;;7.30;99.90;;;;;;4988995;28;20221;-78
2023/01/11 07:30:27;;;;;;;11.40;10.70;;;7.40;99.90;;;;;;4993188;28;20195;-78
2023/01/11 07:32:54;;;;;;;11.07;10.17;;;7.40;99.90;;;;;;4991556;28;20204;-78
2023/01/11 07:35:21;;;;;;;11.27;10.47;;;7.50;99.90;;;;;;4994280;28;20637;-79
2023/01/11 07:37:48;;;;;;;10.93;10.20;;;7.50;99.90;;;;;;4993579;28;20196;-78
2023/01/11 07:40:16;;;;;;;10.70;9.90;;;7.50;99.90;;;;;;4991976;28;20205;-79
2023/01/11 07:45:34;;;;;;;11.00;10.30;;;7.60;99.90;;;;;;5001645;28;20197;-78
2023/01/11 07:48:03;;;;;;;10.87;10.27;;;7.70;99.90;;;;;;4986711;28;20279;-78
2023/01/11 07:50:29;;;;;;;10.73;10.10;;;7.70;99.90;;;;;;4978239;28;20255;-77
2023/01/11 07:52:56;;;;;;;11.57;10.80;;;7.80;99.90;;;;;;4986702;28;20263;-78
2023/01/11 07:55:23;;;;;;;10.93;10.33;;;7.90;99.90;;;;;;4991868;28;20267;-78
2023/01/11 07:57:50;;;;;;;11.10;10.40;;;7.90;99.90;;;;;;4991945;28;20280;-77
2023/01/11 08:00:18;;;;;;;11.80;11.10;;;8.00;99.90;;;;;;4993152;28;20197;-78
2023/01/11 08:02:50;;;;;;;11.30;10.57;;;8.10;99.90;;;;;;4987319;28;20317;-78
2023/01/11 08:05:17;;;;;;;11.00;10.40;;;8.20;99.90;;;;;;4992460;28;20205;-78
2023/01/11 08:07:43;;;;;;;11.53;10.73;;;8.30;99.90;;;;;;4993240;28;20263;-83
2023/01/11 08:10:11;;;;;;;11.00;10.40;;;8.40;99.90;;;;;;4984118;28;20674;-82
2023/01/11 08:15:27;;;;;;;11.20;10.50;;;8.60;99.90;;;;;;4992230;28;20200;-80
2023/01/11 08:17:55;;;;;;;11.37;10.60;;;8.60;99.90;;;;;;4994110;28;20221;-80
2023/01/11 08:20:23;;;;;;;10.93;10.30;;;8.70;99.90;;;;;;4991286;28;20208;-80
2023/01/11 08:22:50;;;;;;;10.40;9.80;;;8.80;99.90;;;;;;4993172;28;20197;-80
2023/01/11 08:25:17;;;;;;;10.60;9.90;;;8.90;99.90;;;;;;4992413;28;20666;-80
2023/01/11 08:27:44;;;;;;;10.70;9.90;;;9.00;99.90;;;;;;4991411;28;20698;-80
2023/01/11 08:30:12;;;;;;;10.50;9.90;;;9.10;99.90;;;;;;4993543;28;20604;-80
2023/01/11 08:32:39;;;;;;;9.87;9.37;;;9.10;99.90;;;;;;4991947;28;20232;-79
2023/01/11 08:35:07;;;;;;;10.23;9.63;;;9.20;99.90;;;;;;4992013;28;20197;-79
2023/01/11 08:37:34;;;;;;;10.30;9.60;;;9.40;99.90;;;;;;4991661;28;20224;-79
2023/01/11 08:40:01;;;;;;;10.50;9.80;;;9.50;99.90;;;;;;4990952;28;20216;-78
2023/01/11 08:42:28;;;;;;;10.60;9.90;;;9.50;99.90;;;;;;4983487;28;20221;-79
2023/01/11 08:44:55;;;;;;;10.77;10.13;;;9.50;99.90;;;;;;4993434;28;20205;-78
2023/01/11 08:47:22;;;;;;;11.03;10.13;;;9.50;99.90;;;;;;4988050;28;20268;-79
2023/01/11 08:49:49;;;;;;;11.00;10.30;;;9.40;99.90;;;;;;4990577;28;20189;-78
2023/01/11 08:52:17;;;;;;;10.70;10.00;;;9.40;99.90;;;;;;4985635;28;20288;-78
2023/01/11 08:54:44;;;;;;;10.40;9.70;;;9.40;99.90;;;;;;4992039;28;20247;-78
2023/01/11 08:57:10;;;;;;;10.17;9.57;;;9.50;99.90;;;;;;4991407;28;20201;-78
2023/01/11 08:59:37;;;;;;;10.30;9.70;;;9.50;99.90;;;;;;4990679;28;20200;-77
2023/01/11 09:02:05;;;;;;;10.57;9.97;;;9.50;99.90;;;;;;4992532;28;20243;-78
2023/01/11 09:04:34;;;;;;;10.70;10.10;;;9.50;99.90;;;;;;4981719;28;21257;-78
2023/01/11 09:07:02;;;;;;;11.30;10.50;;;9.60;99.90;;;;;;4981708;28;20197;-78
2023/01/11 09:09:30;;;;;;;11.37;10.70;;;9.60;99.90;;;;;;4970397;28;20198;-77
2023/01/11 09:11:59;;;;;;;11.10;10.50;;;9.60;99.90;;;;;;4972580;28;20256;-78
2023/01/11 09:14:27;;;;;;;10.87;10.27;;;9.60;99.90;;;;;;4983717;28;20208;-78
2023/01/11 09:16:55;;;;;;;10.50;9.90;;;9.70;99.90;;;;;;4979987;28;20234;-77
2023/01/11 09:19:22;;;;;;;10.87;10.00;;;9.70;99.90;;;;;;4982373;28;20197;-79
2023/01/11 09:21:50;;;;;;;10.67;10.00;;;9.70;99.90;;;;;;4978475;28;20217;-77
2023/01/11 09:24:17;;;;;;;10.50;9.90;;;9.70;99.90;;;;;;4980752;28;20267;-78
2023/01/11 09:26:45;;;;;;;10.17;9.57;;;9.70;99.90;;;;;;4980484;28;20260;-77
2023/01/11 09:29:12;;;;;;;10.40;9.70;;;9.70;99.90;;;;;;4978533;28;20642;-77
2023/01/11 09:31:39;;;;;;;9.93;9.23;;;9.80;99.90;;;;;;4978883;28;20253;-78
2023/01/11 09:34:09;;;;;;;9.80;9.30;;;9.80;99.90;;;;;;4980731;28;20630;-78
2023/01/11 09:36:38;;;;;;;10.07;9.33;;;9.80;99.90;;;;;;4988388;28;20186;-78
2023/01/11 09:39:08;;;;;;;9.83;9.23;;;9.90;99.90;;;;;;4981519;28;20286;-79
2023/01/11 09:41:59;;;;;;;9.70;9.10;;;9.90;99.90;;;;;;4980592;28;20221;-78
2023/01/11 09:44:28;;;;;;;9.60;9.00;;;10.00;99.90;;;;;;4975870;28;20221;-78
2023/01/11 09:47:11;;;;;;;9.73;9.13;;;10.00;99.90;;;;;;4977568;28;20205;-78
2023/01/11 09:49:41;;;;;;;10.07;9.30;;;10.00;99.90;;;;;;4970316;28;20622;-79
2023/01/11 09:52:22;;;;;;;9.80;9.20;;;10.00;99.90;;;;;;4983420;28;20239;-78
2023/01/11 09:54:49;;;;;;;10.30;9.53;;;10.00;99.90;;;;;;4983910;28;20264;-80
2023/01/11 09:57:27;;;;;;;10.30;9.60;;;10.00;99.90;;;;;;4978636;28;20202;-78
2023/01/11 10:00:03;;;;;;;10.60;9.73;;;10.00;99.90;;;;;;4977013;28;20264;-78
2023/01/11 10:02:38;;;;;;;10.43;9.73;;;9.90;99.90;;;;;;4973106;28;20222;-78
2023/01/11 10:05:41;;;;;;;10.80;10.00;;;9.90;99.90;;;;;;4981449;28;20189;-78
2023/01/11 10:08:26;;;;;;;10.20;9.60;;;10.00;99.90;;;;;;4970178;28;20289;-78
2023/01/11 10:11:04;;;;;;;10.03;9.43;;;10.00;99.90;;;;;;4981043;28;20606;-78
2023/01/11 10:13:45;;;;;;;10.33;9.73;;;10.00;99.90;;;;;;4975487;28;20201;-78
2023/01/11 10:16:25;;;;;;;10.40;9.77;;;10.00;99.90;;;;;;4983715;28;20284;-78
2023/01/11 10:19:04;;;;;;;10.57;9.87;;;10.00;99.90;;;;;;4983417;28;20237;-79
2023/01/11 10:21:39;;;;;;;10.43;9.63;;;9.90;99.90;;;;;;4975760;28;20205;-78
2023/01/11 10:24:14;;;;;;;10.37;9.77;;;9.90;99.90;;;;;;4983039;28;20197;-78
2023/01/11 10:26:41;;;;;;;10.30;9.70;;;9.90;99.90;;;;;;4977394;28;20202;-78
2023/01/11 10:29:37;;;;;;;10.70;10.10;;;9.90;99.90;;;;;;4985198;28;20245;-78
2023/01/11 10:32:17;;;;;;;11.03;10.33;;;10.00;99.90;;;;;;4983412;28;20223;-79
2023/01/11 10:35:16;;;;;;;10.50;9.90;;;10.00;99.90;;;;;;4982865;28;20230;-78
2023/01/11 10:38:01;;;;;;;10.40;9.80;;;10.10;99.90;;;;;;4975886;28;20245;-78
2023/01/11 10:40:38;;;;;;;10.10;9.50;;;10.10;99.90;;;;;;4986237;28;20197;-77
2023/01/11 10:43:12;;;;;;;10.60;9.90;;;10.20;99.90;;;;;;4986830;28;20225;-78
2023/01/11 10:45:46;;;;;;;10.30;9.70;;;10.20;99.90;;;;;;4975123;28;20212;-79
2023/01/11 10:48:19;;;;;;;7.57;7.03;;;10.30;99.90;;;;;;4984009;28;21013;-77
2023/01/11 10:50:51;;;;;;;10.40;9.80;;;10.30;99.90;;;;;;4982161;28;20247;-78
2023/01/11 10:53:23;;;;;;;10.50;9.90;;;10.40;99.90;;;;;;4983461;28;20223;-77
2023/01/11 10:55:57;;;;;;;9.90;9.40;;;10.50;99.90;;;;;;4984313;28;20221;-80
2023/01/11 10:58:40;;;;;;;10.50;9.90;;;10.60;99.90;;;;;;4986403;28;20195;-80
2023/01/11 11:01:23;;;;;;;10.63;9.90;;;10.70;99.90;;;;;;4984166;28;20293;-80
2023/01/11 11:04:02;;;;;;;10.33;9.73;;;10.80;99.90;;;;;;4987333;28;20564;-80
2023/01/11 11:06:39;;;;;;;10.10;9.60;;;11.00;99.90;;;;;;4976728;28;20202;-80
2023/01/11 11:09:18;;;;;;;10.30;9.70;;;11.00;99.90;;;;;;4988301;28;20210;-80
2023/01/11 11:11:53;;;;;;;10.40;9.80;;;11.10;99.90;;;;;;4984765;28;20221;-81
2023/01/11 11:14:27;;;;;;;10.20;9.70;;;11.20;99.90;;;;;;4981843;28;20279;-81
2023/01/11 11:17:06;;;;;;;10.30;9.80;;;11.30;99.90;;;;;;4986824;28;20209;-81
2023/01/11 11:19:33;;;;;;;11.07;10.40;;;11.40;99.90;;;;;;4982289;28;20194;-81
2023/01/11 11:22:00;;;;;;;10.60;10.00;;;11.50;99.90;;;;;;4980273;28;20291;-81
2023/01/11 11:24:33;;;;;;;10.57;9.97;;;11.50;99.90;;;;;;4979444;28;20235;-81
2023/01/11 11:27:07;;;;;;;10.60;10.10;;;11.60;99.90;;;;;;4978006;28;20243;-81
2023/01/11 11:29:41;;;;;;;11.63;11.03;;;11.60;99.90;;;;;;4984447;28;20297;-81
2023/01/11 11:32:17;;;;;;;10.07;9.57;;;11.60;99.90;;;;;;4984940;28;20713;-80
2023/01/11 11:34:47;;;;;;;10.33;9.73;;;11.60;99.90;;;;;;4984562;28;20195;-81
2023/01/11 11:37:21;;;;;;;10.43;9.83;;;11.70;99.90;;;;;;4986128;28;20224;-80
2023/01/11 11:39:50;;;;;;;10.53;9.93;;;11.70;99.90;;;;;;4976317;28;20579;-82
2023/01/11 11:42:20;;;;;;;10.93;10.33;;;11.70;99.90;;;;;;4988448;28;20256;-83
2023/01/11 11:45:15;;;;;;;11.43;10.73;;;11.80;99.90;;;;;;4986472;28;20251;-82
2023/01/11 11:47:44;;;;;;;11.30;10.70;;;11.80;99.90;;;;;;4982819;28;20206;-79
2023/01/11 11:50:25;;;;;;;11.70;11.10;;;11.90;99.90;;;;;;4963061;28;20228;-80
2023/01/11 11:53:01;;;;;;;11.83;11.23;;;12.10;99.90;;;;;;4972056;28;20263;-80
2023/01/11 11:55:39;;;;;;;11.13;10.53;;;12.10;99.90;;;;;;4972309;28;20670;-80
2023/01/11 11:58:15;;;;;;;10.80;10.10;;;12.10;99.90;;;;;;4970966;28;20587;-80
2023/01/11 12:00:47;;;;;;;10.80;10.20;;;12.20;99.90;;;;;;4971025;28;21072;-79
2023/01/11 12:03:20;;;;;;;10.60;9.93;;;12.30;99.90;;;;;;4968754;28;20198;-79
2023/01/11 12:05:53;;;;;;;10.80;10.10;;;12.30;99.90;;;;;;4971838;28;20575;-79
2023/01/11 12:08:21;;;;;;;10.70;10.10;;;12.30;99.90;;;;;;4971369;28;20241;-79
2023/01/11 12:10:51;;;;;;;10.70;10.10;;;12.20;99.90;;;;;;4971701;28;20225;-80
2023/01/11 12:13:31;;;;;;;10.50;9.90;;;12.10;99.90;;;;;;4972060;28;20209;-78
2023/01/11 12:15:59;;;;;;;10.67;10.10;;;12.10;99.90;;;;;;4970108;28;20206;-79
2023/01/11 12:18:31;;;;;;;10.67;10.07;;;12.10;99.90;;;;;;4972373;28;20206;-79
2023/01/11 12:21:15;;;;;;;10.20;9.70;;;12.00;99.90;;;;;;4970835;28;20266;-79
2023/01/11 12:23:42;;;;;;;10.40;9.90;;;12.00;99.90;;;;;;4970319;28;20203;-78
2023/01/11 12:26:18;;;;;;;10.47;9.97;;;12.00;99.90;;;;;;4969715;28;20233;-79
2023/01/11 12:29:12;;;;;;;11.00;10.40;;;12.00;99.90;;;;;;4969985;28;20828;-79
2023/01/11 12:31:49;;;;;;;10.80;10.20;;;12.10;99.90;;;;;;4971600;28;20291;-78
2023/01/11 12:34:39;;;;;;;10.77;10.20;;;12.10;99.90;;;;;;4970363;28;20208;-79
2023/01/11 12:37:19;;;;;;;11.00;10.40;;;12.10;99.90;;;;;;4968050;28;20272;-79
2023/01/11 12:39:55;;;;;;;11.27;10.57;;;12.10;99.90;;;;;;4985103;28;20218;-79
2023/01/11 12:42:52;;;;;;;10.80;10.20;;;12.10;99.90;;;;;;4970919;28;20283;-78
2023/01/11 12:45:33;;;;;;;10.10;9.60;;;12.10;99.90;;;;;;4974646;28;20260;-79
2023/01/11 12:48:19;;;;;;;9.93;9.33;;;12.00;99.90;;;;;;4976268;28;20670;-79
2023/01/11 12:51:01;;;;;;;10.00;9.50;;;11.90;99.90;;;;;;4972602;28;20321;-78
2023/01/11 12:53:41;;;;;;;10.73;10.13;;;11.90;99.90;;;;;;4974122;28;20209;-79
2023/01/11 12:56:27;;;;;;;10.60;10.00;;;11.80;99.90;;;;;;4976443;28;20213;-78
2023/01/11 12:59:02;;;;;;;9.80;9.30;;;11.70;99.90;;;;;;4975043;28;20216;-79
2023/01/11 13:01:41;;;;;;;10.50;9.80;;;11.70;99.90;;;;;;4972795;28;20586;-79
2023/01/11 13:04:39;;;;;;;10.57;9.87;;;11.60;99.90;;;;;;4976728;28;20205;-78
2023/01/11 13:07:18;;;;;;;10.60;10.00;;;11.50;99.90;;;;;;4974740;28;20673;-79
2023/01/11 13:09:59;;;;;;;10.27;9.70;;;11.40;99.90;;;;;;4974985;28;20217;-79
2023/01/11 13:12:30;;;;;;;10.43;9.83;;;11.40;99.90;;;;;;4975099;28;20274;-80
2023/01/11 13:15:08;;;;;;;10.03;9.53;;;11.30;99.90;;;;;;4974115;28;20212;-79
2023/01/11 13:17:44;;;;;;;10.40;9.80;;;11.20;99.90;;;;;;4969027;28;20652;-80
2023/01/11 13:20:29;;;;;;;10.03;9.47;;;11.20;99.90;;;;;;4973443;28;20203;-82
2023/01/11 13:23:02;;;;;;;9.80;9.30;;;11.20;99.90;;;;;;4974871;28;20203;-79
2023/01/11 13:25:32;;;;;;;10.30;9.70;;;11.10;99.90;;;;;;4975172;28;20684;-79
2023/01/11 13:28:02;;;;;;;10.20;9.70;;;11.00;99.90;;;;;;4975734;28;20200;-79
2023/01/11 13:30:31;;;;;;;10.50;9.90;;;10.90;99.90;;;;;;4973900;28;20388;-78
2023/01/11 13:33:02;;;;;;;10.53;9.90;;;10.90;99.90;;;;;;4974279;28;20204;-78
2023/01/11 13:35:37;;;;;;;10.40;9.80;;;10.90;99.90;;;;;;4975078;28;20275;-78
2023/01/11 13:38:20;;;;;;;9.73;9.20;;;10.80;99.90;;;;;;4976279;28;20256;-79
2023/01/11 13:40:51;;;;;;;9.70;9.20;;;10.80;99.90;;;;;;4976406;28;20255;-79
2023/01/11 13:43:27;;;;;;;9.80;9.30;;;10.80;99.90;;;;;;4979614;28;20231;-79
2023/01/11 13:46:02;;;;;;;10.37;9.77;;;10.80;99.90;;;;;;4978840;28;20204;-79
2023/01/11 13:48:37;;;;;;;10.23;9.73;;;10.80;99.90;;;;;;4979544;28;20219;-78
2023/01/11 13:51:15;;;;;;;10.60;10.00;;;10.80;99.90;;;;;;4978127;28;20288;-79
2023/01/11 13:53:50;;;;;;;10.50;9.90;;;10.80;99.90;;;;;;4959861;28;20349;-79
2023/01/11 13:56:22;;;;;;;10.87;10.07;;;10.80;99.90;;;;;;4978770;28;20686;-79
2023/01/11 13:58:53;;;;;;;10.77;10.17;;;10.80;99.90;;;;;;4979622;28;20605;-78
2023/01/11 14:01:25;;;;;;;10.80;10.20;;;10.80;99.90;;;;;;4978108;28;20240;-79
2023/01/11 14:03:55;;;;;;;10.97;10.33;;;10.80;99.90;;;;;;4977829;28;20263;-78
2023/01/11 14:06:41;;;;;;;10.70;10.10;;;10.70;99.90;;;;;;4979247;28;20220;-78
2023/01/11 14:09:25;;;;;;;11.57;10.87;;;10.70;99.90;;;;;;4980967;28;20235;-78
2023/01/11 14:12:02;;;;;;;11.40;10.80;;;10.60;99.90;;;;;;4977856;28;20220;-78
2023/01/11 14:14:46;;;;;;;11.70;11.00;;;10.60;99.90;;;;;;4977553;28;20217;-79
2023/01/11 14:17:27;;;;;;;12.10;11.40;;;10.60;99.90;;;;;;4975305;28;20208;-78
2023/01/11 14:20:03;;;;;;;11.70;11.00;;;10.50;99.90;;;;;;4978194;28;20197;-78
2023/01/11 14:22:36;;;;;;;11.57;10.97;;;10.50;99.90;;;;;;4980629;28;20236;-78
2023/01/11 14:25:13;;;;;;;11.60;11.00;;;10.50;99.90;;;;;;4976983;28;20208;-79
2023/01/11 14:28:11;;;;;;;11.80;11.20;;;10.50;99.90;;;;;;4989616;28;20205;-79
2023/01/11 14:30:57;;;;;;;11.77;11.17;;;10.50;99.90;;;;;;4982845;28;20287;-80
2023/01/11 14:33:45;;;;;;;11.57;10.97;;;10.50;99.90;;;;;;4973246;28;20221;-79
2023/01/11 14:36:48;;;;;;;11.90;11.20;;;10.50;99.90;;;;;;4976021;28;20252;-81
2023/01/11 14:39:48;;;;;;;11.60;10.90;;;10.50;99.90;;;;;;4967785;28;20203;-79
2023/01/11 14:42:31;;;;;;;12.20;11.50;;;10.40;99.90;;;;;;4936496;28;20241;-78
2023/01/11 14:45:23;;;;;;;12.30;11.60;;;10.40;99.90;;;;;;4974054;28;20599;-78
2023/01/11 14:48:13;;;;;;;13.20;12.33;;;10.40;99.90;;;;;;4983068;28;20678;-80
2023/01/11 14:50:54;;;;;;;12.80;12.00;;;10.30;99.90;;;;;;4982217;28;20234;-79
2023/01/11 14:53:25;;;;;;;12.83;12.07;;;10.20;99.90;;;;;;4982067;28;20256;-78
2023/01/11 14:55:52;;;;;;;13.10;12.20;;;10.20;99.90;;;;;;4972824;28;20206;-80
2023/01/11 14:58:25;;;;;;;11.67;10.97;;;10.10;99.90;;;;;;4984294;28;20256;-80
2023/01/11 15:01:07;;;;;;;11.63;10.93;;;10.10;99.90;;;;;;4978455;28;20249;-78
2023/01/11 15:03:58;;;;;;;12.60;11.90;;;10.00;99.90;;;;;;4976991;28;20202;-80
2023/01/11 15:06:30;;;;;;;12.70;12.00;;;9.90;99.90;;;;;;4987567;28;20720;-80
2023/01/11 15:08:57;;;;;;;12.70;12.00;;;9.80;99.90;;;;;;4977577;28;20259;-79
2023/01/11 15:11:34;;;;;;;12.40;11.80;;;9.80;99.90;;;;;;4981478;28;20221;-80
2023/01/11 15:14:18;;;;;;;12.20;11.60;;;9.70;99.90;;;;;;4989009;28;20225;-80
2023/01/11 15:19:42;;;;;;;12.60;11.90;;;9.60;99.90;;;;;;4985745;28;20231;-80
2023/01/11 15:22:25;;;;;;;12.30;11.70;;;9.60;99.90;;;;;;4991323;28;20216;-80
2023/01/11 15:24:57;;;;;;;11.90;11.30;;;9.60;99.90;;;;;;4980693;28;20198;-78
2023/01/11 15:27:28;;;;;;;11.80;11.20;;;9.50;99.90;;;;;;4994336;28;20269;-79
2023/01/11 15:29:57;;;;;;;12.20;11.60;;;9.50;99.90;;;;;;4988203;28;20276;-77
2023/01/11 15:32:27;;;;;;;12.30;11.60;;;9.50;99.90;;;;;;4990373;28;20256;-80
2023/01/11 15:35:14;;;;;;;12.33;11.63;;;9.50;99.90;;;;;;4984205;28;20202;-79
2023/01/11 15:37:50;;;;;;;12.03;11.43;;;9.40;99.90;;;;;;4983033;28;20274;-81
2023/01/11 15:40:20;;;;;;;12.60;11.90;;;9.40;99.90;;;;;;4973298;28;20206;-80
2023/01/11 15:43:18;;;;;;;12.77;11.97;;;9.40;99.90;;;;;;4977288;28;20229;-80
2023/01/11 15:49:36;;;;;;;12.70;12.00;;;9.30;99.90;;;;;;4988706;28;20207;-80
2023/01/11 15:52:23;;;;;;;12.97;12.17;;;9.30;99.90;;;;;;4979332;28;20662;-79
2023/01/11 15:55:25;;;;;;;11.93;11.33;;;9.30;99.90;;;;;;4985235;28;20201;-80
2023/01/11 15:58:15;;;;;;;12.10;11.50;;;9.30;99.90;;;;;;4970839;28;20202;-80
2023/01/11 16:01:07;;;;;;;12.33;11.63;;;9.20;99.90;;;;;;4968000;28;20244;-79
2023/01/11 16:03:56;;;;;;;12.20;11.50;;;9.20;99.90;;;;;;4980324;28;20745;-80
2023/01/11 16:06:42;;;;;;;12.80;12.10;;;9.10;99.90;;;;;;4988527;28;20232;-80
2023/01/11 16:09:41;;;;;;;12.50;11.70;;;9.10;99.90;;;;;;4975188;28;20201;-80
2023/01/11 16:12:29;;;;;;;12.20;11.60;;;9.00;99.90;;;;;;4987147;28;20288;-78
2023/01/11 16:15:41;;;;;;;12.47;11.77;;;9.00;99.90;;;;;;4956243;28;20628;-76
2023/01/11 16:18:14;;;;;;;12.03;11.33;;;9.00;99.90;;;;;;4941112;28;20218;-78
2023/01/11 16:20:44;;;;;;;11.80;11.10;;;8.90;99.90;;;;;;4959280;28;20250;-78
2023/01/11 16:23:19;;;;;;;12.20;11.50;;;8.90;99.90;;;;;;4958752;28;20644;-77
2023/01/11 16:25:51;;;;;;;12.10;11.30;;;8.90;99.90;;;;;;4954486;28;20286;-78
2023/01/11 16:28:18;;;;;;;12.17;11.50;;;8.90;99.90;;;;;;4957077;28;20269;-79